createdAt,value
2023-04-24T00:01:06.792Z,12.32
2023-04-24T00:03:35.120Z,11.50
2023-04-24T00:06:01.908Z,11.98
2023-04-24T00:08:28.435Z,12.63
2023-04-24T00:10:54.911Z,11.63
2023-04-24T00:13:21.438Z,11.80
2023-04-24T00:15:47.892Z,11.65
2023-04-24T00:18:14.397Z,11.63
2023-04-24T00:20:40.891Z,11.57
2023-04-24T00:23:07.346Z,11.00
2023-04-24T00:25:33.995Z,11.20
2023-04-24T00:28:00.483Z,11.10
2023-04-24T00:30:26.985Z,11.63
2023-04-24T00:32:53.862Z,10.95
2023-04-24T00:35:20.387Z,11.10
2023-04-24T00:37:46.850Z,12.55
2023-04-24T00:40:13.531Z,11.23
2023-04-24T00:42:40.355Z,10.73
2023-04-24T00:45:07.311Z,11.57
2023-04-24T00:47:33.773Z,10.73
2023-04-24T00:50:00.652Z,9.70
2023-04-24T00:52:27.528Z,10.57
2023-04-24T00:54:54.407Z,9.80
2023-04-24T00:57:20.894Z,9.55
2023-04-24T00:59:47.322Z,10.35
2023-04-24T01:02:14.098Z,10.68
2023-04-24T01:04:40.792Z,9.65
2023-04-24T01:07:07.853Z,9.60
2023-04-24T01:09:35.081Z,9.80
2023-04-24T01:12:02.156Z,10.02
2023-04-24T01:14:28.729Z,9.93
2023-04-24T01:16:55.290Z,9.45
2023-04-24T01:19:22.445Z,9.38
2023-04-24T01:21:49.533Z,8.73
2023-04-24T01:24:16.345Z,8.73
2023-04-24T01:26:42.793Z,8.55
2023-04-24T01:29:09.715Z,9.80
2023-04-24T01:31:36.308Z,9.27
2023-04-24T01:34:02.862Z,9.02
2023-04-24T01:36:29.220Z,8.57
2023-04-24T01:38:55.995Z,9.23
2023-04-24T01:41:22.809Z,9.43
2023-04-24T01:43:49.499Z,8.88
2023-04-24T01:46:16.150Z,8.60
2023-04-24T01:48:42.761Z,9.05
2023-04-24T01:51:09.244Z,8.63
2023-04-24T01:53:35.703Z,9.13
2023-04-24T01:56:02.432Z,8.65
2023-04-24T01:58:28.957Z,9.18
2023-04-24T02:00:55.582Z,8.70
2023-04-24T02:03:22.379Z,8.38
2023-04-24T02:05:48.970Z,8.65
2023-04-24T02:08:15.665Z,8.48
2023-04-24T02:10:42.412Z,8.32
2023-04-24T02:13:08.825Z,7.85
2023-04-24T02:15:35.838Z,8.25
2023-04-24T02:18:02.677Z,8.32
2023-04-24T02:20:29.112Z,8.90
2023-04-24T02:22:55.798Z,8.32
2023-04-24T02:25:22.231Z,8.48
2023-04-24T02:27:49.626Z,8.27
2023-04-24T02:30:16.168Z,8.13
2023-04-24T02:32:42.745Z,8.93
2023-04-24T02:35:09.985Z,8.48
2023-04-24T02:37:36.606Z,8.27
2023-04-24T02:40:03.457Z,8.20
2023-04-24T02:42:29.988Z,8.32
2023-04-24T02:44:56.837Z,8.25
2023-04-24T02:47:23.806Z,7.80
2023-04-24T02:49:50.745Z,8.20
2023-04-24T02:52:17.275Z,8.15
2023-04-24T02:54:44.028Z,7.97
2023-04-24T02:57:10.955Z,7.90
2023-04-24T02:59:38.099Z,8.55
2023-04-24T03:02:04.776Z,7.75
2023-04-24T03:04:31.720Z,7.55
2023-04-24T03:06:58.555Z,7.75
2023-04-24T03:09:25.420Z,8.18
2023-04-24T03:11:52.255Z,8.10
2023-04-24T03:14:18.820Z,8.05
2023-04-24T03:16:45.857Z,8.02
2023-04-24T03:19:12.372Z,7.90
2023-04-24T03:21:39.409Z,7.00
2023-04-24T03:24:05.909Z,7.53
2023-04-24T03:26:32.890Z,7.78
2023-04-24T03:28:59.354Z,7.72
2023-04-24T03:31:26.402Z,7.88
2023-04-24T03:33:53.434Z,7.57
2023-04-24T03:36:19.989Z,7.20
2023-04-24T03:38:46.841Z,7.78
2023-04-24T03:41:13.702Z,7.60
2023-04-24T03:43:40.376Z,7.65
2023-04-24T03:46:07.410Z,7.50
2023-04-24T03:48:34.267Z,7.35
2023-04-24T03:51:01.313Z,7.47
2023-04-24T03:53:28.360Z,7.70
2023-04-24T03:55:54.881Z,7.60
2023-04-24T03:58:22.219Z,7.75
2023-04-24T04:00:49.065Z,7.68
2023-04-24T04:03:15.671Z,7.05
2023-04-24T04:05:42.811Z,7.00
2023-04-24T04:08:09.395Z,7.38
2023-04-24T04:13:14.710Z,7.45
2023-04-24T04:15:41.100Z,7.38
2023-04-24T04:18:08.198Z,7.68
2023-04-24T04:20:34.789Z,7.63
2023-04-24T04:23:01.137Z,7.22
2023-04-24T04:25:27.639Z,7.22
2023-04-24T04:27:54.443Z,6.88
2023-04-24T04:30:21.124Z,7.50
2023-04-24T04:32:47.539Z,6.75
2023-04-24T04:35:14.179Z,7.72
2023-04-24T04:37:40.888Z,7.15
2023-04-24T04:40:07.858Z,7.03
2023-04-24T04:42:34.364Z,7.03
2023-04-24T04:45:01.080Z,6.72
2023-04-24T04:47:27.789Z,6.57
2023-04-24T04:49:54.435Z,6.85
2023-04-24T04:52:21.005Z,7.35
2023-04-24T04:54:47.482Z,7.38
2023-04-24T04:57:14.230Z,7.68
2023-04-24T04:59:41.169Z,6.97
2023-04-24T05:02:08.313Z,7.00
2023-04-24T05:04:35.678Z,6.97
2023-04-24T05:07:02.254Z,6.85
2023-04-24T05:09:29.002Z,6.90
2023-04-24T05:11:55.322Z,7.10
2023-04-24T05:14:21.866Z,6.78
2023-04-24T05:16:48.719Z,7.28
2023-04-24T05:19:15.286Z,6.95
2023-04-24T05:21:42.196Z,6.30
2023-04-24T05:24:08.887Z,6.70
2023-04-24T05:26:35.411Z,7.10
2023-04-24T05:29:01.750Z,6.63
2023-04-24T05:31:28.736Z,6.68
2023-04-24T05:33:55.339Z,7.05
2023-04-24T05:36:21.836Z,6.95
2023-04-24T05:38:48.579Z,7.00
2023-04-24T05:41:14.872Z,7.15
2023-04-24T05:43:41.650Z,7.03
2023-04-24T05:46:08.190Z,7.07
2023-04-24T05:48:34.713Z,6.60
2023-04-24T05:51:01.329Z,6.68
2023-04-24T05:53:27.802Z,7.18
2023-04-24T05:55:54.138Z,6.78
2023-04-24T05:58:20.465Z,6.43
2023-04-24T06:00:46.978Z,6.72
2023-04-24T06:03:13.814Z,6.45
2023-04-24T06:05:40.437Z,7.00
2023-04-24T06:08:06.776Z,6.50
2023-04-24T06:10:33.268Z,6.22
2023-04-24T06:12:59.702Z,6.35
2023-04-24T06:15:26.392Z,6.45
2023-04-24T06:17:53.129Z,6.30
2023-04-24T06:20:19.555Z,6.63
2023-04-24T06:22:46.001Z,6.70
2023-04-24T06:25:12.317Z,6.40
2023-04-24T06:27:38.821Z,6.22
2023-04-24T06:30:05.186Z,6.43
2023-04-24T06:32:31.546Z,6.10
2023-04-24T06:34:59.092Z,6.00
2023-04-24T06:37:26.035Z,6.28
2023-04-24T06:39:52.842Z,6.57
2023-04-24T06:42:19.647Z,6.10
2023-04-24T06:44:46.216Z,6.20
2023-04-24T06:47:12.583Z,6.10
2023-04-24T06:49:39.214Z,6.03
2023-04-24T06:52:05.971Z,6.20
2023-04-24T06:54:32.680Z,5.95
2023-04-24T06:56:59.050Z,6.28
2023-04-24T06:59:25.786Z,6.10
2023-04-24T07:01:54.728Z,6.22
2023-04-24T07:04:22.751Z,5.78
2023-04-24T07:06:49.374Z,6.13
2023-04-24T07:09:16.325Z,5.63
2023-04-24T07:11:42.665Z,5.53
2023-04-24T07:14:09.513Z,5.70
2023-04-24T07:16:35.933Z,5.97
2023-04-24T07:19:02.741Z,5.68
2023-04-24T07:21:29.424Z,5.07
2023-04-24T07:23:55.934Z,5.55
2023-04-24T07:26:22.403Z,5.93
2023-04-24T07:28:49.260Z,6.13
2023-04-24T07:31:15.955Z,6.07
2023-04-24T07:33:42.587Z,5.18
2023-04-24T07:36:09.080Z,5.45
2023-04-24T07:38:35.624Z,5.75
2023-04-24T07:41:02.144Z,5.63
2023-04-24T07:43:28.452Z,4.97
2023-04-24T07:45:55.228Z,5.53
2023-04-24T07:48:21.852Z,5.50
2023-04-24T07:50:48.810Z,5.25
2023-04-24T07:53:15.152Z,4.78
2023-04-24T07:55:41.924Z,4.82
2023-04-24T07:58:08.528Z,5.50
2023-04-24T08:00:34.921Z,4.90
2023-04-24T08:03:01.763Z,4.82
2023-04-24T08:05:28.550Z,4.63
2023-04-24T08:07:55.316Z,5.45
2023-04-24T08:10:21.941Z,4.65
2023-04-24T08:12:48.758Z,4.75
2023-04-24T08:15:15.348Z,5.40
2023-04-24T08:17:42.108Z,5.20
2023-04-24T08:20:08.507Z,5.30
2023-04-24T08:22:34.933Z,5.00
2023-04-24T08:25:01.760Z,5.10
2023-04-24T08:27:28.250Z,4.22
2023-04-24T08:29:54.712Z,4.95
2023-04-24T08:32:21.549Z,4.82
2023-04-24T08:34:49.538Z,4.53
2023-04-24T08:37:16.535Z,4.63
2023-04-24T08:39:43.334Z,4.90
2023-04-24T08:42:09.977Z,4.85
2023-04-24T08:44:36.628Z,4.65
2023-04-24T08:47:03.269Z,5.18
2023-04-24T08:49:30.160Z,4.85
2023-04-24T08:51:56.730Z,4.70
2023-04-24T08:54:23.355Z,5.18
2023-04-24T08:56:49.855Z,4.88
2023-04-24T08:59:16.261Z,4.40
2023-04-24T09:01:42.629Z,4.78
2023-04-24T09:04:09.177Z,4.43
2023-04-24T09:06:35.796Z,4.07
2023-04-24T09:09:02.131Z,4.50
2023-04-24T09:11:28.936Z,4.13
2023-04-24T09:13:55.490Z,4.20
2023-04-24T09:16:21.944Z,5.07
2023-04-24T09:18:48.372Z,4.47
2023-04-24T09:21:15.279Z,4.55
2023-04-24T09:23:41.730Z,4.72
2023-04-24T09:26:08.190Z,4.40
2023-04-24T09:28:34.705Z,4.18
2023-04-24T09:31:01.578Z,4.20
2023-04-24T09:33:28.376Z,4.70
2023-04-24T09:35:54.701Z,4.13
2023-04-24T09:38:21.420Z,4.35
2023-04-24T09:40:48.196Z,3.88
2023-04-24T09:43:14.497Z,4.28
2023-04-24T09:45:41.041Z,4.13
2023-04-24T09:48:07.746Z,3.80
2023-04-24T09:50:34.113Z,4.03
2023-04-24T09:53:00.508Z,4.15
2023-04-24T09:55:27.204Z,3.85
2023-04-24T09:57:54.685Z,4.40
2023-04-24T10:00:21.025Z,3.83
2023-04-24T10:02:47.950Z,4.03
2023-04-24T10:05:14.435Z,4.05
2023-04-24T10:07:41.148Z,3.88
2023-04-24T10:10:07.828Z,3.92
2023-04-24T10:12:34.167Z,4.07
2023-04-24T10:15:00.703Z,3.97
2023-04-24T10:17:27.520Z,4.07
2023-04-24T10:19:54.349Z,3.95
2023-04-24T10:22:20.884Z,3.90
2023-04-24T10:24:47.322Z,3.67
2023-04-24T10:27:13.746Z,4.00
2023-04-24T10:29:40.113Z,3.97
2023-04-24T10:32:06.999Z,3.92
2023-04-24T10:34:33.457Z,3.40
2023-04-24T10:37:00.033Z,3.65
2023-04-24T10:39:27.889Z,3.72
2023-04-24T10:41:55.147Z,3.80
2023-04-24T10:44:21.953Z,3.83
2023-04-24T10:46:48.874Z,3.53
2023-04-24T10:49:15.253Z,3.60
2023-04-24T10:51:41.560Z,3.40
2023-04-24T10:54:08.245Z,3.78
2023-04-24T10:56:34.522Z,3.55
2023-04-24T10:59:01.373Z,3.70
2023-04-24T11:01:28.325Z,3.50
2023-04-24T11:03:54.884Z,3.58
2023-04-24T11:06:21.673Z,3.50
2023-04-24T11:08:48.337Z,3.47
2023-04-24T11:11:14.852Z,3.42
2023-04-24T11:13:41.434Z,3.38
2023-04-24T11:16:07.773Z,4.03
2023-04-24T11:18:34.538Z,3.40
2023-04-24T11:21:01.188Z,3.28
2023-04-24T11:23:28.176Z,3.47
2023-04-24T11:25:54.945Z,3.33
2023-04-24T11:28:21.743Z,3.25
2023-04-24T11:30:48.187Z,3.50
2023-04-24T11:33:14.759Z,2.83
2023-04-24T11:35:41.418Z,3.22
2023-04-24T11:38:23.428Z,3.40
2023-04-24T11:40:50.312Z,3.08
2023-04-24T11:43:17.377Z,3.03
2023-04-24T11:45:43.857Z,3.20
2023-04-24T11:48:10.560Z,3.47
2023-04-24T11:50:37.171Z,3.28
2023-04-24T11:53:04.515Z,3.25
2023-04-24T11:55:30.960Z,3.10
2023-04-24T11:57:57.590Z,3.13
2023-04-24T12:00:24.141Z,3.20
2023-04-24T12:02:50.924Z,3.30
2023-04-24T12:05:18.036Z,3.60
2023-04-24T12:07:44.752Z,2.80
2023-04-24T12:10:11.688Z,2.95
2023-04-24T12:12:38.065Z,3.00
2023-04-24T12:15:04.915Z,3.10
2023-04-24T12:17:31.413Z,2.80
2023-04-24T12:19:57.776Z,2.75
2023-04-24T12:22:24.289Z,3.22
2023-04-24T12:24:50.636Z,3.40
2023-04-24T12:27:17.283Z,3.00
2023-04-24T12:29:43.613Z,2.60
2023-04-24T12:32:10.580Z,2.90
2023-04-24T12:34:36.959Z,3.00
2023-04-24T12:37:04.249Z,2.90
2023-04-24T12:39:30.901Z,2.80
2023-04-24T12:41:57.692Z,2.90
2023-04-24T12:44:24.283Z,2.63
2023-04-24T12:46:51.088Z,3.20
2023-04-24T12:49:17.907Z,2.60
2023-04-24T12:51:44.832Z,2.60
2023-04-24T12:54:11.331Z,2.75
2023-04-24T12:56:37.856Z,2.90
2023-04-24T12:59:04.621Z,103.10
2023-04-24T13:01:33.103Z,240.68
2023-04-24T13:04:00.066Z,283.80
2023-04-24T13:06:26.610Z,206.00
2023-04-24T13:08:53.700Z,189.48
2023-04-24T13:11:20.559Z,153.40
2023-04-24T13:13:47.357Z,133.98
2023-04-24T13:16:13.779Z,111.22
2023-04-24T13:18:40.666Z,97.07
2023-04-24T13:21:07.135Z,101.75
2023-04-24T13:23:33.481Z,216.20
2023-04-24T13:26:00.157Z,174.15
2023-04-24T13:28:26.804Z,147.10
2023-04-24T13:30:53.500Z,136.00
2023-04-24T13:33:20.228Z,110.75
2023-04-24T13:35:47.175Z,84.05
2023-04-24T13:38:13.574Z,83.95
2023-04-24T13:40:40.499Z,157.68
2023-04-24T13:43:06.891Z,333.20
2023-04-24T13:45:33.517Z,304.20
2023-04-24T13:48:00.538Z,282.90
2023-04-24T13:50:27.117Z,242.23
2023-04-24T13:52:53.469Z,206.48
2023-04-24T13:55:20.186Z,183.73
2023-04-24T13:57:46.720Z,155.82
2023-04-24T14:00:13.479Z,125.50
2023-04-24T14:02:40.004Z,242.13
2023-04-24T14:05:06.713Z,372.27
2023-04-24T14:07:33.374Z,410.33
2023-04-24T14:10:00.077Z,325.75
2023-04-24T14:12:26.669Z,284.65
2023-04-24T14:14:53.592Z,268.52
2023-04-24T14:17:20.244Z,253.40
2023-04-24T14:19:47.043Z,234.85
2023-04-24T14:22:14.006Z,228.10
2023-04-24T14:24:40.604Z,222.07
2023-04-24T14:27:07.475Z,215.70
2023-04-24T14:29:35.272Z,207.77
2023-04-24T14:32:01.894Z,203.80
2023-04-24T14:34:28.863Z,195.73
2023-04-24T14:36:55.377Z,193.25
2023-04-24T14:39:22.447Z,197.60
2023-04-24T14:41:49.143Z,191.80
2023-04-24T14:44:16.227Z,185.65
2023-04-24T14:46:42.671Z,183.48
2023-04-24T14:49:09.134Z,181.75
2023-04-24T14:51:36.021Z,176.55
2023-04-24T14:54:02.786Z,170.45
2023-04-24T14:56:29.278Z,168.75
2023-04-24T14:58:56.085Z,166.20
2023-04-24T15:01:23.163Z,165.25
2023-04-24T15:03:50.454Z,166.13
2023-04-24T15:06:17.319Z,230.48
2023-04-24T15:08:43.637Z,426.77
2023-04-24T15:11:10.186Z,422.00
2023-04-24T15:13:36.976Z,445.30
2023-04-24T15:16:03.354Z,407.10
2023-04-24T15:18:29.745Z,361.95
2023-04-24T15:20:56.570Z,330.38
2023-04-24T15:23:23.624Z,320.95
2023-04-24T15:25:50.423Z,309.23
2023-04-24T15:28:17.406Z,502.60
2023-04-24T15:30:43.890Z,568.95
2023-04-24T15:33:10.397Z,529.08
2023-04-24T15:35:37.335Z,497.27
2023-04-24T15:38:03.691Z,446.95
2023-04-24T15:40:30.884Z,431.15
2023-04-24T15:42:57.686Z,419.10
2023-04-24T15:45:24.558Z,400.70
2023-04-24T15:47:51.429Z,385.15
2023-04-24T15:50:17.809Z,379.92
2023-04-24T15:52:44.457Z,378.15
2023-04-24T15:55:11.244Z,357.60
2023-04-24T15:57:37.845Z,358.33
2023-04-24T16:00:04.191Z,428.98
2023-04-24T16:02:30.628Z,622.42
2023-04-24T16:04:57.319Z,597.92
2023-04-24T16:07:23.940Z,519.47
2023-04-24T16:09:50.824Z,496.98
2023-04-24T16:12:17.650Z,475.45
2023-04-24T16:14:44.232Z,461.83
2023-04-24T16:17:10.774Z,455.15
2023-04-24T16:19:37.666Z,432.48
2023-04-24T16:22:04.038Z,427.27
2023-04-24T16:24:30.405Z,520.38
2023-04-24T16:26:56.706Z,596.65
2023-04-24T16:29:23.091Z,469.55
2023-04-24T16:31:49.783Z,450.92
2023-04-24T16:34:16.876Z,431.90
2023-04-24T16:36:43.285Z,403.42
2023-04-24T16:39:10.082Z,390.67
2023-04-24T16:41:36.507Z,378.75
2023-04-24T16:44:03.167Z,351.08
2023-04-24T16:46:29.706Z,340.98
2023-04-24T16:48:56.186Z,326.33
2023-04-24T16:51:23.174Z,312.60
2023-04-24T16:53:49.897Z,296.25
2023-04-24T16:56:16.245Z,286.08
2023-04-24T16:58:43.009Z,263.33
2023-04-24T17:01:09.926Z,260.45
2023-04-24T17:03:36.885Z,415.63
2023-04-24T17:06:03.699Z,380.13
2023-04-24T17:08:30.497Z,348.35
2023-04-24T17:10:57.421Z,339.13
2023-04-24T17:13:23.872Z,325.95
2023-04-24T17:15:50.566Z,305.42
2023-04-24T17:18:17.577Z,292.00
2023-04-24T17:20:44.223Z,283.10
2023-04-24T17:23:10.716Z,265.67
2023-04-24T17:25:37.529Z,264.85
2023-04-24T17:28:03.871Z,240.75
2023-04-24T17:30:30.749Z,230.15
2023-04-24T17:32:57.562Z,216.90
2023-04-24T17:35:24.541Z,206.27
2023-04-24T17:37:50.856Z,198.88
2023-04-24T17:40:17.973Z,186.82
2023-04-24T17:42:44.451Z,207.90
2023-04-24T17:45:11.004Z,299.38
2023-04-24T17:47:37.454Z,275.30
2023-04-24T17:50:03.970Z,257.42
2023-04-24T17:52:30.409Z,239.48
2023-04-24T17:54:57.043Z,226.07
2023-04-24T17:57:23.707Z,228.18
2023-04-24T17:59:50.101Z,211.98
2023-04-24T18:02:16.791Z,161.82
2023-04-24T18:04:43.780Z,150.13
2023-04-24T18:07:12.097Z,135.35
2023-04-24T18:09:38.578Z,151.38
2023-04-24T18:12:05.122Z,183.50
2023-04-24T18:14:31.416Z,189.50
2023-04-24T18:16:58.198Z,177.50
2023-04-24T18:19:24.635Z,167.85
2023-04-24T18:21:51.312Z,157.27
2023-04-24T18:24:17.676Z,151.93
2023-04-24T18:26:44.457Z,148.40
2023-04-24T18:29:10.987Z,138.32
2023-04-24T18:31:37.718Z,129.38
2023-04-24T18:34:04.332Z,126.82
2023-04-24T18:36:30.769Z,123.35
2023-04-24T18:38:57.273Z,111.88
2023-04-24T18:41:23.596Z,105.38
2023-04-24T18:43:50.544Z,101.82
2023-04-24T18:46:17.619Z,99.22
2023-04-24T18:48:44.251Z,96.88
2023-04-24T18:51:10.685Z,108.80
2023-04-24T18:53:37.110Z,288.90
2023-04-24T18:56:03.541Z,322.35
2023-04-24T18:58:29.897Z,304.83
2023-04-24T19:00:56.907Z,281.17
2023-04-24T19:03:23.562Z,264.95
2023-04-24T19:05:50.293Z,247.40
2023-04-24T19:08:16.782Z,237.63
2023-04-24T19:10:43.360Z,221.40
2023-04-24T19:13:09.687Z,219.23
2023-04-24T19:15:36.095Z,203.60
2023-04-24T19:18:02.692Z,261.85
2023-04-24T19:20:29.170Z,389.95
2023-04-24T19:22:55.623Z,352.65
2023-04-24T19:25:22.112Z,340.40
2023-04-24T19:27:48.728Z,324.50
2023-04-24T19:30:15.083Z,315.08
2023-04-24T19:32:41.499Z,293.95
2023-04-24T19:35:08.247Z,275.33
2023-04-24T19:37:34.561Z,276.25
2023-04-24T19:40:00.991Z,277.52
2023-04-24T19:42:36.355Z,267.75
2023-04-24T19:45:09.648Z,259.35
2023-04-24T19:47:36.029Z,257.83
2023-04-24T19:50:02.481Z,255.82
2023-04-24T19:52:29.051Z,426.20
2023-04-24T19:54:55.950Z,598.00
2023-04-24T19:57:22.832Z,464.60
2023-04-24T19:59:49.552Z,418.70
2023-04-24T20:02:17.681Z,399.45
2023-04-24T20:04:44.475Z,377.02
2023-04-24T20:07:11.064Z,357.33
2023-04-24T20:09:37.743Z,356.00
2023-04-24T20:12:04.265Z,742.50
2023-04-24T20:14:30.890Z,643.17
2023-04-24T20:16:57.412Z,560.88
2023-04-24T20:19:24.289Z,514.42
2023-04-24T20:21:50.660Z,506.08
2023-04-24T20:24:17.005Z,495.67
2023-04-24T20:26:43.744Z,460.90
2023-04-24T20:29:10.092Z,465.25
2023-04-24T20:31:36.853Z,444.48
2023-04-24T20:34:03.277Z,441.05
2023-04-24T20:36:29.709Z,433.73
2023-04-24T20:38:56.202Z,436.75
2023-04-24T20:41:23.070Z,424.75
2023-04-24T20:43:49.440Z,419.40
2023-04-24T20:46:16.120Z,412.20
2023-04-24T20:48:42.444Z,397.23
2023-04-24T20:51:08.810Z,397.75
2023-04-24T20:53:35.127Z,384.88
2023-04-24T20:56:01.555Z,387.27
2023-04-24T20:58:28.036Z,372.92
2023-04-24T21:00:54.599Z,365.67
2023-04-24T21:03:21.905Z,358.98
2023-04-24T21:05:49.275Z,349.23
2023-04-24T21:08:15.689Z,350.35
2023-04-24T21:10:42.584Z,349.52
2023-04-24T21:13:09.212Z,341.50
2023-04-24T21:15:35.789Z,344.45
2023-04-24T21:18:02.294Z,325.02
2023-04-24T21:20:28.840Z,322.35
2023-04-24T21:22:55.619Z,319.02
2023-04-24T21:25:22.045Z,318.08
2023-04-24T21:27:48.832Z,309.63
2023-04-24T21:30:15.424Z,303.45
2023-04-24T21:32:41.877Z,301.45
2023-04-24T21:35:08.457Z,296.55
2023-04-24T21:37:34.832Z,290.30
2023-04-24T21:40:01.438Z,288.85
2023-04-24T21:42:27.890Z,281.13
2023-04-24T21:44:54.524Z,271.52
2023-04-24T21:47:21.000Z,283.02
2023-04-24T21:49:47.412Z,268.23
2023-04-24T21:52:13.865Z,267.00
2023-04-24T21:54:40.623Z,260.20
2023-04-24T21:57:07.504Z,257.38
2023-04-24T21:59:33.907Z,243.95
2023-04-24T22:02:00.287Z,247.27
2023-04-24T22:04:27.557Z,245.30
2023-04-24T22:06:55.266Z,238.45
2023-04-24T22:09:21.811Z,236.50
2023-04-24T22:11:48.329Z,231.77
2023-04-24T22:14:14.856Z,231.27
2023-04-24T22:16:41.532Z,229.88
2023-04-24T22:19:07.934Z,227.88
2023-04-24T22:21:35.369Z,218.38
2023-04-24T22:24:02.815Z,220.98
2023-04-24T22:26:29.397Z,216.35
2023-04-24T22:28:55.809Z,208.13
2023-04-24T22:31:22.661Z,204.82
2023-04-24T22:33:49.409Z,203.55
2023-04-24T22:36:16.539Z,194.70
2023-04-24T22:38:43.012Z,195.32
2023-04-24T22:41:09.917Z,195.38
2023-04-24T22:43:36.794Z,190.35
2023-04-24T22:46:04.951Z,187.30
2023-04-24T22:48:31.438Z,183.43
2023-04-24T22:50:58.335Z,178.55
2023-04-24T22:53:24.896Z,172.68
2023-04-24T22:55:51.513Z,174.38
2023-04-24T22:58:17.964Z,166.50
2023-04-24T23:00:44.557Z,166.20
2023-04-24T23:03:11.158Z,164.52
2023-04-24T23:05:37.661Z,161.32
2023-04-24T23:08:04.076Z,154.48
2023-04-24T23:10:30.735Z,151.50
2023-04-24T23:12:57.502Z,152.38
2023-04-24T23:15:24.148Z,150.32
2023-04-24T23:17:50.949Z,150.27
2023-04-24T23:20:17.423Z,148.63
2023-04-24T23:22:44.253Z,145.68
2023-04-24T23:25:10.607Z,146.85
2023-04-24T23:27:37.722Z,138.25
2023-04-24T23:30:04.283Z,132.82
2023-04-24T23:32:30.744Z,132.25
2023-04-24T23:34:57.465Z,130.10
2023-04-24T23:37:24.209Z,129.63
2023-04-24T23:39:51.021Z,128.68
2023-04-24T23:42:17.520Z,125.43
2023-04-24T23:44:43.931Z,121.05
2023-04-24T23:47:10.791Z,119.65
2023-04-24T23:49:37.497Z,121.65
2023-04-24T23:52:04.124Z,115.82
2023-04-24T23:54:31.031Z,117.60
2023-04-24T23:56:57.539Z,113.03
2023-04-24T23:59:24.139Z,114.60
